createdAt,value
2023-01-17T00:00:14.796Z,48
2023-01-17T00:05:23.780Z,47
2023-01-17T00:10:22.869Z,47
2023-01-17T00:15:13.776Z,48
2023-01-17T00:20:14.031Z,47
2023-01-17T00:25:19.856Z,48
2023-01-17T00:30:17.687Z,48
2023-01-17T00:35:18.620Z,47
2023-01-17T00:40:14.275Z,48
2023-01-17T00:45:18.111Z,48
2023-01-17T00:50:13.851Z,48
2023-01-17T01:00:18.675Z,47
2023-01-17T01:05:16.813Z,48
2023-01-17T01:10:17.556Z,48
2023-01-17T01:15:18.390Z,49
2023-01-17T01:20:24.440Z,48
2023-01-17T01:25:14.396Z,47
2023-01-17T01:30:18.305Z,48
2023-01-17T01:35:22.093Z,48
2023-01-17T01:40:15.930Z,48
2023-01-17T01:45:14.064Z,48
2023-01-17T01:50:15.853Z,48
2023-01-17T01:55:15.736Z,48
2023-01-17T02:00:24.741Z,47
2023-01-17T02:05:24.344Z,47
2023-01-17T02:10:20.254Z,48
2023-01-17T02:15:15.667Z,48
2023-01-17T02:20:16.520Z,47
2023-01-17T02:25:16.379Z,49
2023-01-17T02:30:18.592Z,48
2023-01-17T02:35:30.488Z,47
2023-01-17T02:40:21.351Z,47
2023-01-17T02:45:16.462Z,49
2023-01-17T02:50:18.241Z,47
2023-01-17T02:55:19.950Z,48
2023-01-17T03:00:15.836Z,48
2023-01-17T03:05:15.672Z,48
2023-01-17T03:10:18.653Z,49
2023-01-17T03:15:14.516Z,47
2023-01-17T03:20:18.473Z,48
2023-01-17T03:25:16.301Z,48
2023-01-17T03:30:16.310Z,47
2023-01-17T03:35:14.139Z,47
2023-01-17T03:40:19.982Z,48
2023-01-17T03:45:19.831Z,48
2023-01-17T03:50:13.694Z,48
2023-01-17T03:55:14.807Z,48
2023-01-17T04:00:15.597Z,48
2023-01-17T04:05:14.440Z,48
2023-01-17T04:10:15.745Z,49
2023-01-17T04:15:16.621Z,48
2023-01-17T04:20:18.838Z,48
2023-01-17T04:25:15.539Z,48
2023-01-17T04:30:20.529Z,49
2023-01-17T04:35:14.225Z,48
2023-01-17T04:40:22.175Z,48
2023-01-17T04:45:22.147Z,48
2023-01-17T04:50:13.985Z,48
2023-01-17T04:55:14.775Z,48
2023-01-17T05:00:24.109Z,47
2023-01-17T05:05:16.343Z,47
2023-01-17T05:10:25.461Z,48
2023-01-17T05:15:22.589Z,48
2023-01-17T05:20:22.511Z,49
2023-01-17T05:25:20.307Z,49
2023-01-17T05:30:16.226Z,52
2023-01-17T05:35:14.258Z,52
2023-01-17T05:40:14.180Z,53
2023-01-17T05:45:20.203Z,54
2023-01-17T05:50:18.012Z,52
2023-01-17T05:55:13.808Z,52
2023-01-17T06:00:14.753Z,52
2023-01-17T06:05:27.860Z,53
2023-01-17T06:10:15.827Z,52
2023-01-17T06:15:17.810Z,53
2023-01-17T06:20:19.728Z,51
2023-01-17T06:25:24.817Z,51
2023-01-17T06:30:13.883Z,52
2023-01-17T06:35:18.001Z,52
2023-01-17T06:40:13.737Z,51
2023-01-17T06:45:20.626Z,50
2023-01-17T06:50:14.600Z,51
2023-01-17T06:55:16.434Z,50
2023-01-17T07:00:16.361Z,50
2023-01-17T07:05:15.853Z,50
2023-01-17T07:10:13.608Z,50
2023-01-17T07:15:14.518Z,50
2023-01-17T07:20:22.314Z,49
2023-01-17T07:25:20.285Z,50
2023-01-17T07:30:16.073Z,50
2023-01-17T07:35:15.790Z,49
2023-01-17T07:40:16.629Z,50
2023-01-17T07:45:14.435Z,50
2023-01-17T07:50:24.197Z,50
2023-01-17T07:55:16.028Z,50
2023-01-17T08:00:14.116Z,50
2023-01-17T08:05:17.929Z,49
2023-01-17T08:10:19.781Z,50
2023-01-17T08:15:16.596Z,50
2023-01-17T08:20:18.551Z,50
2023-01-17T08:25:16.384Z,50
2023-01-17T08:30:16.166Z,50
2023-01-17T08:35:22.181Z,50
2023-01-17T08:40:18.024Z,50
2023-01-17T08:45:13.809Z,50
2023-01-17T08:50:13.696Z,50
2023-01-17T08:55:22.480Z,49
2023-01-17T09:00:18.290Z,50
2023-01-17T09:05:16.537Z,49
2023-01-17T09:10:18.276Z,49
2023-01-17T09:15:16.201Z,50
2023-01-17T09:20:14.149Z,50
2023-01-17T09:25:15.957Z,50
2023-01-17T09:30:15.810Z,50
2023-01-17T09:35:21.585Z,49
2023-01-17T09:40:16.375Z,50
2023-01-17T09:45:16.339Z,50
2023-01-17T09:50:20.281Z,50
2023-01-17T09:55:18.267Z,50
2023-01-17T10:00:20.000Z,50
2023-01-17T10:05:17.093Z,50
2023-01-17T10:10:16.031Z,50
2023-01-17T10:15:13.856Z,49
2023-01-17T10:20:15.671Z,48
2023-01-17T10:25:14.510Z,50
2023-01-17T10:30:16.413Z,49
2023-01-17T10:35:16.563Z,50
2023-01-17T10:40:22.392Z,50
2023-01-17T10:45:18.285Z,49
2023-01-17T10:50:18.264Z,50
2023-01-17T10:55:16.184Z,50
2023-01-17T11:00:14.046Z,50
2023-01-17T11:05:18.058Z,50
2023-01-17T11:10:13.881Z,50
2023-01-17T11:15:29.194Z,50
2023-01-17T11:20:22.443Z,49
2023-01-17T11:25:18.155Z,49
2023-01-17T11:30:14.311Z,50
2023-01-17T11:35:19.624Z,50
2023-01-17T11:40:20.417Z,49
2023-01-17T11:45:16.308Z,50
2023-01-17T11:50:18.037Z,50
2023-01-17T11:55:20.181Z,49
2023-01-17T12:00:18.235Z,50
2023-01-17T12:05:16.657Z,50
2023-01-17T12:10:16.699Z,50
2023-01-17T12:15:20.744Z,49
2023-01-17T12:20:16.490Z,50
2023-01-17T12:25:16.485Z,49
2023-01-17T12:30:18.587Z,49
2023-01-17T12:35:16.738Z,50
2023-01-17T12:40:18.854Z,50
2023-01-17T12:45:13.731Z,50
2023-01-17T12:50:16.600Z,50
2023-01-17T12:55:16.479Z,50
2023-01-17T13:00:16.326Z,49
2023-01-17T13:05:14.306Z,50
2023-01-17T13:10:14.060Z,50
2023-01-17T13:20:26.975Z,50
2023-01-17T13:25:14.541Z,50
2023-01-17T13:30:16.494Z,50
2023-01-17T13:35:14.323Z,50
2023-01-17T13:40:16.874Z,49
2023-01-17T13:45:14.335Z,50
2023-01-17T13:50:20.307Z,50
2023-01-17T13:55:22.210Z,48
2023-01-17T14:00:14.128Z,50
2023-01-17T14:05:20.377Z,50
2023-01-17T14:10:16.249Z,50
2023-01-17T14:15:20.252Z,50
2023-01-17T14:20:16.174Z,50
2023-01-17T14:25:16.061Z,48
2023-01-17T14:30:16.116Z,50
2023-01-17T14:35:17.917Z,50
2023-01-17T14:40:14.114Z,50
2023-01-17T14:45:22.372Z,48
2023-01-17T14:50:18.323Z,50
2023-01-17T14:55:20.064Z,48
2023-01-17T15:00:19.966Z,49
2023-01-17T15:05:16.460Z,50
2023-01-17T15:10:20.709Z,49
2023-01-17T15:15:16.601Z,49
2023-01-17T15:20:18.972Z,49
2023-01-17T15:25:17.925Z,49
2023-01-17T15:30:24.622Z,49
2023-01-17T15:35:16.461Z,48
2023-01-17T15:40:14.473Z,49
2023-01-17T15:45:16.626Z,50
2023-01-17T15:50:17.285Z,49
2023-01-17T15:55:16.080Z,49
2023-01-17T16:00:16.152Z,48
2023-01-17T16:05:24.415Z,49
2023-01-17T16:10:18.482Z,49
2023-01-17T16:15:29.469Z,49
2023-01-17T16:20:16.758Z,48
2023-01-17T16:25:23.653Z,49
2023-01-17T16:30:14.528Z,49
2023-01-17T16:35:22.337Z,49
2023-01-17T16:40:29.296Z,51
2023-01-17T16:45:16.224Z,50
2023-01-17T16:50:20.248Z,51
2023-01-17T16:55:16.064Z,50
2023-01-17T17:00:23.949Z,51
2023-01-17T17:05:18.162Z,50
2023-01-17T17:10:16.342Z,50
2023-01-17T17:15:14.530Z,50
2023-01-17T17:20:16.516Z,50
2023-01-17T17:25:19.053Z,50
2023-01-17T17:30:15.901Z,51
2023-01-17T17:35:19.735Z,50
2023-01-17T17:40:24.681Z,50
2023-01-17T17:45:16.600Z,51
2023-01-17T17:50:18.393Z,52
2023-01-17T17:55:16.352Z,52
2023-01-17T18:00:18.424Z,52
2023-01-17T18:05:25.130Z,51
2023-01-17T18:10:18.326Z,52
2023-01-17T18:15:16.222Z,52
2023-01-17T18:20:16.068Z,51
2023-01-17T18:25:29.956Z,51
2023-01-17T18:30:16.258Z,52
2023-01-17T18:35:14.200Z,52
2023-01-17T18:40:18.060Z,52
2023-01-17T18:45:16.017Z,51
2023-01-17T18:50:21.810Z,51
2023-01-17T18:55:15.981Z,50
2023-01-17T19:00:13.943Z,50
2023-01-17T19:05:17.676Z,50
2023-01-17T19:10:18.471Z,51
2023-01-17T19:15:14.973Z,51
2023-01-17T19:20:21.914Z,51
2023-01-17T19:25:15.595Z,50
2023-01-17T19:30:14.565Z,52
2023-01-17T19:35:18.730Z,52
2023-01-17T19:40:22.596Z,51
2023-01-17T19:45:14.531Z,52
2023-01-17T19:50:16.256Z,51
2023-01-17T19:55:16.255Z,51
2023-01-17T20:00:16.417Z,51
2023-01-17T20:05:24.389Z,51
2023-01-17T20:10:23.068Z,51
2023-01-17T20:15:19.869Z,51
2023-01-17T20:20:28.554Z,51
2023-01-17T20:25:18.265Z,50
2023-01-17T20:30:36.119Z,51
2023-01-17T20:35:15.884Z,50
2023-01-17T20:40:17.689Z,51
2023-01-17T20:45:18.552Z,51
2023-01-17T20:50:20.597Z,51
2023-01-17T20:55:18.424Z,50
2023-01-17T21:00:16.324Z,50
2023-01-17T21:05:20.942Z,50
2023-01-17T21:10:13.626Z,50
2023-01-17T21:15:22.414Z,51
2023-01-17T21:20:20.399Z,50
2023-01-17T21:25:14.189Z,50
2023-01-17T21:30:16.036Z,50
2023-01-17T21:35:15.829Z,49
2023-01-17T21:40:16.658Z,50
2023-01-17T21:45:16.600Z,50
2023-01-17T21:50:33.873Z,50
2023-01-17T21:55:15.767Z,49
2023-01-17T22:00:16.746Z,50
2023-01-17T22:05:17.008Z,49
2023-01-17T22:10:13.682Z,50
2023-01-17T22:15:20.654Z,50
2023-01-17T22:20:22.455Z,50
2023-01-17T22:25:22.469Z,49
2023-01-17T22:30:16.550Z,50
2023-01-17T22:35:18.152Z,50
2023-01-17T22:40:18.014Z,50
2023-01-17T22:45:15.848Z,50
2023-01-17T22:50:15.658Z,50
2023-01-17T22:55:16.591Z,50
2023-01-17T23:00:22.425Z,48
2023-01-17T23:05:16.194Z,49
2023-01-17T23:10:13.972Z,48
2023-01-17T23:15:15.746Z,49
2023-01-17T23:20:18.608Z,49
2023-01-17T23:25:14.451Z,48
2023-01-17T23:30:18.182Z,49
2023-01-17T23:35:17.974Z,48
2023-01-17T23:40:18.001Z,49
2023-01-17T23:45:14.034Z,49
2023-01-17T23:50:16.193Z,49
2023-01-17T23:55:19.928Z,49
